sensor_id;sensor_type;location;lat;lon;timestamp;pressure;altitude;pressure_sealevel;temperature;humidity
42771;BME280;28426;42.872;25.314;2023-09-18T00:01:10;97452.34;;;16.32;71.92
42771;BME280;28426;42.872;25.314;2023-09-18T00:03:44;97459.81;;;16.30;72.28
42771;BME280;28426;42.872;25.314;2023-09-18T00:06:20;97451.34;;;16.27;72.24
42771;BME280;28426;42.872;25.314;2023-09-18T00:08:54;97462.31;;;16.25;72.44
42771;BME280;28426;42.872;25.314;2023-09-18T00:11:27;97455.25;;;16.24;72.50
42771;BME280;28426;42.872;25.314;2023-09-18T00:14:01;97457.34;;;16.22;72.71
42771;BME280;28426;42.872;25.314;2023-09-18T00:16:34;97454.06;;;16.20;72.30
42771;BME280;28426;42.872;25.314;2023-09-18T00:19:24;97449.09;;;16.17;72.65
42771;BME280;28426;42.872;25.314;2023-09-18T00:21:58;97441.66;;;16.12;73.08
42771;BME280;28426;42.872;25.314;2023-09-18T00:24:31;97445.59;;;16.10;73.23
42771;BME280;28426;42.872;25.314;2023-09-18T00:27:04;97450.38;;;16.07;73.11
42771;BME280;28426;42.872;25.314;2023-09-18T00:29:37;97459.50;;;16.06;73.78
42771;BME280;28426;42.872;25.314;2023-09-18T00:32:12;97451.63;;;16.05;73.44
42771;BME280;28426;42.872;25.314;2023-09-18T00:34:45;97444.81;;;16.02;73.45
42771;BME280;28426;42.872;25.314;2023-09-18T00:37:21;97445.81;;;16.01;73.46
42771;BME280;28426;42.872;25.314;2023-09-18T00:39:54;97450.41;;;16.01;73.30
42771;BME280;28426;42.872;25.314;2023-09-18T00:42:27;97444.19;;;16.00;73.45
42771;BME280;28426;42.872;25.314;2023-09-18T00:44:59;97439.22;;;15.97;73.45
42771;BME280;28426;42.872;25.314;2023-09-18T00:47:33;97441.28;;;15.95;73.44
42771;BME280;28426;42.872;25.314;2023-09-18T00:50:11;97444.81;;;15.95;73.43
42771;BME280;28426;42.872;25.314;2023-09-18T00:52:50;97444.16;;;15.93;73.60
42771;BME280;28426;42.872;25.314;2023-09-18T00:55:23;97430.69;;;15.93;73.49
42771;BME280;28426;42.872;25.314;2023-09-18T00:57:55;97438.97;;;15.92;73.40
42771;BME280;28426;42.872;25.314;2023-09-18T01:00:28;97435.50;;;15.91;74.05
42771;BME280;28426;42.872;25.314;2023-09-18T01:03:01;97435.91;;;15.88;74.03
42771;BME280;28426;42.872;25.314;2023-09-18T01:05:34;97438.78;;;15.87;74.17
42771;BME280;28426;42.872;25.314;2023-09-18T01:08:09;97439.25;;;15.84;74.15
42771;BME280;28426;42.872;25.314;2023-09-18T01:10:48;97437.78;;;15.81;74.78
42771;BME280;28426;42.872;25.314;2023-09-18T01:13:30;97433.88;;;15.77;74.51
42771;BME280;28426;42.872;25.314;2023-09-18T01:16:13;97436.78;;;15.75;74.61
42771;BME280;28426;42.872;25.314;2023-09-18T01:18:51;97433.44;;;15.73;74.47
42771;BME280;28426;42.872;25.314;2023-09-18T01:21:30;97430.97;;;15.72;74.60
42771;BME280;28426;42.872;25.314;2023-09-18T01:24:08;97440.28;;;15.69;74.81
42771;BME280;28426;42.872;25.314;2023-09-18T01:26:40;97429.72;;;15.67;74.43
42771;BME280;28426;42.872;25.314;2023-09-18T01:29:15;97430.97;;;15.65;74.61
42771;BME280;28426;42.872;25.314;2023-09-18T01:31:49;97430.56;;;15.61;74.68
42771;BME280;28426;42.872;25.314;2023-09-18T01:34:29;97427.91;;;15.54;74.80
42771;BME280;28426;42.872;25.314;2023-09-18T01:37:11;97430.38;;;15.49;74.78
42771;BME280;28426;42.872;25.314;2023-09-18T01:39:51;97424.59;;;15.46;74.72
42771;BME280;28426;42.872;25.314;2023-09-18T01:42:33;97430.19;;;15.44;74.70
42771;BME280;28426;42.872;25.314;2023-09-18T01:45:12;97438.66;;;15.41;74.78
42771;BME280;28426;42.872;25.314;2023-09-18T01:47:46;97435.38;;;15.39;75.01
42771;BME280;28426;42.872;25.314;2023-09-18T01:50:21;97440.94;;;15.37;75.00
42771;BME280;28426;42.872;25.314;2023-09-18T01:52:58;97438.06;;;15.32;75.18
42771;BME280;28426;42.872;25.314;2023-09-18T01:55:36;97440.31;;;15.35;75.14
42771;BME280;28426;42.872;25.314;2023-09-18T01:58:14;97444.25;;;15.33;75.08
42771;BME280;28426;42.872;25.314;2023-09-18T02:00:48;97441.75;;;15.31;75.11
42771;BME280;28426;42.872;25.314;2023-09-18T02:03:21;97437.63;;;15.28;75.15
42771;BME280;28426;42.872;25.314;2023-09-18T02:06:19;97444.88;;;15.28;75.37
42771;BME280;28426;42.872;25.314;2023-09-18T02:08:56;97441.56;;;15.26;75.69
42771;BME280;28426;42.872;25.314;2023-09-18T02:11:39;97442.59;;;15.25;75.65
42771;BME280;28426;42.872;25.314;2023-09-18T02:14:18;97447.97;;;15.25;75.55
42771;BME280;28426;42.872;25.314;2023-09-18T02:16:52;97451.72;;;15.24;75.74
42771;BME280;28426;42.872;25.314;2023-09-18T02:19:26;97449.22;;;15.22;76.22
42771;BME280;28426;42.872;25.314;2023-09-18T02:22:04;97448.38;;;15.22;75.29
42771;BME280;28426;42.872;25.314;2023-09-18T02:24:43;97451.28;;;15.20;75.48
42771;BME280;28426;42.872;25.314;2023-09-18T02:27:26;97450.66;;;15.18;75.43
42771;BME280;28426;42.872;25.314;2023-09-18T02:30:03;97455.44;;;15.16;75.49
42771;BME280;28426;42.872;25.314;2023-09-18T02:32:42;97449.41;;;15.14;75.60
42771;BME280;28426;42.872;25.314;2023-09-18T02:35:17;97447.97;;;15.11;75.89
42771;BME280;28426;42.872;25.314;2023-09-18T02:37:53;97448.38;;;15.08;75.88
42771;BME280;28426;42.872;25.314;2023-09-18T02:40:30;97449.63;;;15.06;76.05
42771;BME280;28426;42.872;25.314;2023-09-18T02:43:07;97440.50;;;15.00;76.66
42771;BME280;28426;42.872;25.314;2023-09-18T02:45:46;97450.03;;;14.96;76.57
42771;BME280;28426;42.872;25.314;2023-09-18T02:48:27;97452.28;;;14.92;76.25
42771;BME280;28426;42.872;25.314;2023-09-18T02:51:06;97451.25;;;14.86;76.58
42771;BME280;28426;42.872;25.314;2023-09-18T02:53:43;97452.47;;;14.84;76.97
42771;BME280;28426;42.872;25.314;2023-09-18T02:56:25;97456.81;;;14.78;76.70
42771;BME280;28426;42.872;25.314;2023-09-18T02:59:03;97457.03;;;14.76;77.05
42771;BME280;28426;42.872;25.314;2023-09-18T03:01:39;97457.38;;;14.73;77.07
42771;BME280;28426;42.872;25.314;2023-09-18T03:04:15;97469.16;;;14.72;76.87
42771;BME280;28426;42.872;25.314;2023-09-18T03:06:52;97467.53;;;14.71;77.02
42771;BME280;28426;42.872;25.314;2023-09-18T03:09:34;97459.88;;;14.68;76.66
42771;BME280;28426;42.872;25.314;2023-09-18T03:12:12;97464.41;;;14.68;76.78
42771;BME280;28426;42.872;25.314;2023-09-18T03:14:52;97463.97;;;14.64;76.78
42771;BME280;28426;42.872;25.314;2023-09-18T03:17:34;97458.59;;;14.64;76.70
42771;BME280;28426;42.872;25.314;2023-09-18T03:20:14;97468.50;;;14.63;76.77
42771;BME280;28426;42.872;25.314;2023-09-18T03:22:51;97471.44;;;14.62;77.00
42771;BME280;28426;42.872;25.314;2023-09-18T03:25:29;97469.75;;;14.61;76.78
42771;BME280;28426;42.872;25.314;2023-09-18T03:28:20;97472.63;;;14.59;76.53
42771;BME280;28426;42.872;25.314;2023-09-18T03:30:54;97458.78;;;14.56;76.88
42771;BME280;28426;42.872;25.314;2023-09-18T03:33:28;97464.81;;;14.58;76.85
42771;BME280;28426;42.872;25.314;2023-09-18T03:36:06;97463.13;;;14.57;76.55
42771;BME280;28426;42.872;25.314;2023-09-18T03:38:42;97473.25;;;14.55;76.46
42771;BME280;28426;42.872;25.314;2023-09-18T03:41:21;97468.91;;;14.54;76.61
42771;BME280;28426;42.872;25.314;2023-09-18T03:43:58;97471.59;;;14.54;76.81
42771;BME280;28426;42.872;25.314;2023-09-18T03:46:39;97471.81;;;14.52;76.67
42771;BME280;28426;42.872;25.314;2023-09-18T03:49:16;97471.81;;;14.52;76.88
42771;BME280;28426;42.872;25.314;2023-09-18T03:51:54;97472.00;;;14.50;76.91
42771;BME280;28426;42.872;25.314;2023-09-18T03:54:29;97477.38;;;14.50;76.96
42771;BME280;28426;42.872;25.314;2023-09-18T03:57:06;97474.69;;;14.50;77.12
42771;BME280;28426;42.872;25.314;2023-09-18T03:59:45;97474.88;;;14.49;77.17
42771;BME280;28426;42.872;25.314;2023-09-18T04:02:25;97476.75;;;14.48;77.24
42771;BME280;28426;42.872;25.314;2023-09-18T04:05:04;97481.28;;;14.48;77.00
42771;BME280;28426;42.872;25.314;2023-09-18T04:07:41;97482.50;;;14.45;77.14
42771;BME280;28426;42.872;25.314;2023-09-18T04:10:18;97487.88;;;14.45;77.13
42771;BME280;28426;42.872;25.314;2023-09-18T04:12:57;97484.56;;;14.43;77.11
42771;BME280;28426;42.872;25.314;2023-09-18T04:15:34;97488.91;;;14.44;77.00
42771;BME280;28426;42.872;25.314;2023-09-18T04:18:15;97477.53;;;14.42;76.94
42771;BME280;28426;42.872;25.314;2023-09-18T04:20:53;97484.34;;;14.45;77.05
42771;BME280;28426;42.872;25.314;2023-09-18T04:23:30;97486.00;;;14.46;77.56
42771;BME280;28426;42.872;25.314;2023-09-18T04:26:05;97491.19;;;14.47;77.27
42771;BME280;28426;42.872;25.314;2023-09-18T04:28:46;97489.16;;;14.49;77.45
42771;BME280;28426;42.872;25.314;2023-09-18T04:31:21;97484.19;;;14.53;77.35
42771;BME280;28426;42.872;25.314;2023-09-18T04:34:01;97486.69;;;14.55;77.74
42771;BME280;28426;42.872;25.314;2023-09-18T04:36:37;97496.19;;;14.57;77.63
42771;BME280;28426;42.872;25.314;2023-09-18T04:39:16;97495.78;;;14.60;77.55
42771;BME280;28426;42.872;25.314;2023-09-18T04:41:53;97490.00;;;14.63;77.84
42771;BME280;28426;42.872;25.314;2023-09-18T04:44:29;97493.94;;;14.68;77.83
42771;BME280;28426;42.872;25.314;2023-09-18T04:47:05;97495.19;;;14.72;78.09
42771;BME280;28426;42.872;25.314;2023-09-18T04:49:41;97500.00;;;14.76;78.32
42771;BME280;28426;42.872;25.314;2023-09-18T04:52:21;97492.16;;;14.82;78.38
42771;BME280;28426;42.872;25.314;2023-09-18T04:54:59;97499.41;;;14.88;78.23
42771;BME280;28426;42.872;25.314;2023-09-18T04:57:38;97506.66;;;14.94;78.06
42771;BME280;28426;42.872;25.314;2023-09-18T05:00:14;97504.19;;;14.99;77.88
42771;BME280;28426;42.872;25.314;2023-09-18T05:02:54;97504.59;;;15.03;77.57
42771;BME280;28426;42.872;25.314;2023-09-18T05:05:36;97499.63;;;15.07;77.32
42771;BME280;28426;42.872;25.314;2023-09-18T05:08:15;97498.00;;;15.12;77.04
42771;BME280;28426;42.872;25.314;2023-09-18T05:10:51;97504.44;;;15.18;77.24
42771;BME280;28426;42.872;25.314;2023-09-18T05:13:25;97502.78;;;15.24;76.99
42771;BME280;28426;42.872;25.314;2023-09-18T05:15:58;97502.78;;;15.30;77.13
42771;BME280;28426;42.872;25.314;2023-09-18T05:18:32;97512.50;;;15.38;76.93
42771;BME280;28426;42.872;25.314;2023-09-18T05:21:08;97512.50;;;15.45;76.71
42771;BME280;28426;42.872;25.314;2023-09-18T05:23:40;97509.63;;;15.53;76.78
42771;BME280;28426;42.872;25.314;2023-09-18T05:26:12;97508.97;;;15.65;76.73
42771;BME280;28426;42.872;25.314;2023-09-18T05:28:45;97516.22;;;15.85;77.38
42771;BME280;28426;42.872;25.314;2023-09-18T05:31:21;97513.72;;;16.10;77.49
42771;BME280;28426;42.872;25.314;2023-09-18T05:33:59;97516.13;;;16.39;77.29
42771;BME280;28426;42.872;25.314;2023-09-18T05:36:38;97507.72;;;16.74;77.67
42771;BME280;28426;42.872;25.314;2023-09-18T05:39:14;97511.22;;;17.13;77.15
42771;BME280;28426;42.872;25.314;2023-09-18T05:41:50;97514.84;;;17.58;76.50
42771;BME280;28426;42.872;25.314;2023-09-18T05:44:26;97516.72;;;18.09;76.18
42771;BME280;28426;42.872;25.314;2023-09-18T05:47:00;97514.06;;;18.58;75.17
42771;BME280;28426;42.872;25.314;2023-09-18T05:49:33;97509.88;;;19.12;73.86
42771;BME280;28426;42.872;25.314;2023-09-18T05:52:13;97509.84;;;19.66;71.86
42771;BME280;28426;42.872;25.314;2023-09-18T05:54:49;97510.47;;;20.16;69.69
42771;BME280;28426;42.872;25.314;2023-09-18T05:57:26;97512.53;;;20.62;68.13
42771;BME280;28426;42.872;25.314;2023-09-18T06:00:04;97510.41;;;21.05;66.45
42771;BME280;28426;42.872;25.314;2023-09-18T06:02:41;97516.19;;;21.43;63.39
42771;BME280;28426;42.872;25.314;2023-09-18T06:05:17;97511.38;;;21.79;62.83
42771;BME280;28426;42.872;25.314;2023-09-18T06:07:58;97510.91;;;22.22;61.94
42771;BME280;28426;42.872;25.314;2023-09-18T06:10:33;97507.63;;;22.65;61.18
42771;BME280;28426;42.872;25.314;2023-09-18T06:13:10;97508.06;;;23.01;59.47
42771;BME280;28426;42.872;25.314;2023-09-18T06:15:45;97511.16;;;23.37;58.22
42771;BME280;28426;42.872;25.314;2023-09-18T06:18:22;97510.38;;;23.75;57.14
42771;BME280;28426;42.872;25.314;2023-09-18T06:21:03;97511.19;;;24.13;55.59
42771;BME280;28426;42.872;25.314;2023-09-18T06:23:42;97510.81;;;24.42;53.91
42771;BME280;28426;42.872;25.314;2023-09-18T06:26:18;97507.06;;;24.64;53.16
42771;BME280;28426;42.872;25.314;2023-09-18T06:28:51;97513.47;;;24.96;53.61
42771;BME280;28426;42.872;25.314;2023-09-18T06:31:31;97513.81;;;25.36;51.99
42771;BME280;28426;42.872;25.314;2023-09-18T06:34:10;97507.03;;;25.70;50.68
42771;BME280;28426;42.872;25.314;2023-09-18T06:36:47;97516.03;;;25.91;49.55
42771;BME280;28426;42.872;25.314;2023-09-18T06:39:25;97520.91;;;26.10;48.79
42771;BME280;28426;42.872;25.314;2023-09-18T06:42:02;97517.59;;;26.23;48.23
42771;BME280;28426;42.872;25.314;2023-09-18T06:44:37;97519.53;;;26.33;47.10
42771;BME280;28426;42.872;25.314;2023-09-18T06:47:11;97518.13;;;26.41;46.88
42771;BME280;28426;42.872;25.314;2023-09-18T06:49:49;97509.91;;;26.41;46.42
42771;BME280;28426;42.872;25.314;2023-09-18T06:52:26;97517.56;;;26.44;46.43
42771;BME280;28426;42.872;25.314;2023-09-18T06:55:05;97524.69;;;26.45;46.07
42771;BME280;28426;42.872;25.314;2023-09-18T06:57:40;97514.00;;;26.49;46.58
42771;BME280;28426;42.872;25.314;2023-09-18T07:00:19;97525.13;;;26.68;46.36
42771;BME280;28426;42.872;25.314;2023-09-18T07:02:58;97513.00;;;26.90;46.12
42771;BME280;28426;42.872;25.314;2023-09-18T07:05:34;97516.13;;;27.18;45.67
42771;BME280;28426;42.872;25.314;2023-09-18T07:08:11;97518.44;;;27.46;45.27
42771;BME280;28426;42.872;25.314;2023-09-18T07:10:55;97513.75;;;27.81;44.64
42771;BME280;28426;42.872;25.314;2023-09-18T07:13:30;97511.19;;;28.19;44.04
42771;BME280;28426;42.872;25.314;2023-09-18T07:16:03;97511.03;;;28.59;43.35
42771;BME280;28426;42.872;25.314;2023-09-18T07:18:35;97513.34;;;28.96;42.29
42771;BME280;28426;42.872;25.314;2023-09-18T07:21:08;97508.22;;;29.28;41.20
42771;BME280;28426;42.872;25.314;2023-09-18T07:23:42;97514.97;;;29.35;39.66
42771;BME280;28426;42.872;25.314;2023-09-18T07:26:19;97513.50;;;29.24;39.50
42771;BME280;28426;42.872;25.314;2023-09-18T07:28:56;97511.84;;;29.23;40.08
42771;BME280;28426;42.872;25.314;2023-09-18T07:31:33;97511.34;;;29.40;39.71
42771;BME280;28426;42.872;25.314;2023-09-18T07:34:13;97516.13;;;29.68;39.42
42771;BME280;28426;42.872;25.314;2023-09-18T07:36:48;97503.75;;;29.84;38.62
42771;BME280;28426;42.872;25.314;2023-09-18T07:39:28;97506.03;;;30.10;38.07
42771;BME280;28426;42.872;25.314;2023-09-18T07:42:08;97507.63;;;30.31;36.89
42771;BME280;28426;42.872;25.314;2023-09-18T07:44:44;97505.28;;;30.52;36.38
42771;BME280;28426;42.872;25.314;2023-09-18T07:47:20;97499.75;;;30.52;35.61
42771;BME280;28426;42.872;25.314;2023-09-18T07:50:00;97506.16;;;30.47;34.75
42771;BME280;28426;42.872;25.314;2023-09-18T07:52:38;97520.97;;;30.37;35.07
42771;BME280;28426;42.872;25.314;2023-09-18T07:55:13;97510.88;;;30.33;35.03
42771;BME280;28426;42.872;25.314;2023-09-18T07:57:54;97508.06;;;30.05;34.85
42771;BME280;28426;42.872;25.314;2023-09-18T08:00:29;97517.81;;;29.83;34.50
42771;BME280;28426;42.872;25.314;2023-09-18T08:03:08;97517.03;;;29.44;33.49
42771;BME280;28426;42.872;25.314;2023-09-18T08:05:48;97516.84;;;29.02;32.95
42771;BME280;28426;42.872;25.314;2023-09-18T08:08:27;97512.00;;;28.93;34.37
42771;BME280;28426;42.872;25.314;2023-09-18T08:11:08;97507.56;;;29.17;33.64
42771;BME280;28426;42.872;25.314;2023-09-18T08:13:46;97507.66;;;29.45;33.09
42771;BME280;28426;42.872;25.314;2023-09-18T08:16:18;97508.53;;;29.79;33.02
42771;BME280;28426;42.872;25.314;2023-09-18T08:18:51;97506.16;;;30.05;31.73
42771;BME280;28426;42.872;25.314;2023-09-18T08:21:25;97504.75;;;30.22;31.09
42771;BME280;28426;42.872;25.314;2023-09-18T08:23:57;97493.13;;;30.25;30.96
42771;BME280;28426;42.872;25.314;2023-09-18T08:26:29;97500.78;;;30.28;30.30
42771;BME280;28426;42.872;25.314;2023-09-18T08:29:04;97494.88;;;30.21;29.87
42771;BME280;28426;42.872;25.314;2023-09-18T08:31:35;97489.53;;;30.10;29.29
42771;BME280;28426;42.872;25.314;2023-09-18T08:34:12;97483.09;;;30.01;29.80
42771;BME280;28426;42.872;25.314;2023-09-18T08:36:52;97489.00;;;29.94;30.42
42771;BME280;28426;42.872;25.314;2023-09-18T08:39:30;97474.72;;;29.92;30.16
42771;BME280;28426;42.872;25.314;2023-09-18T08:42:12;97472.81;;;29.93;30.70
42771;BME280;28426;42.872;25.314;2023-09-18T08:44:55;97474.53;;;29.88;29.78
42771;BME280;28426;42.872;25.314;2023-09-18T08:47:32;97475.53;;;29.79;29.54
42771;BME280;28426;42.872;25.314;2023-09-18T08:50:10;97465.00;;;29.67;30.33
42771;BME280;28426;42.872;25.314;2023-09-18T08:52:47;97467.47;;;29.49;30.43
42771;BME280;28426;42.872;25.314;2023-09-18T08:55:21;97467.09;;;29.22;30.38
42771;BME280;28426;42.872;25.314;2023-09-18T08:58:00;97462.47;;;28.98;30.52
42771;BME280;28426;42.872;25.314;2023-09-18T09:00:39;97460.75;;;28.83;31.53
42771;BME280;28426;42.872;25.314;2023-09-18T09:03:13;97458.44;;;28.71;32.02
42771;BME280;28426;42.872;25.314;2023-09-18T09:05:55;97451.69;;;28.64;31.39
42771;BME280;28426;42.872;25.314;2023-09-18T09:08:33;97462.81;;;28.53;30.17
42771;BME280;28426;42.872;25.314;2023-09-18T09:11:13;97458.38;;;28.33;29.55
42771;BME280;28426;42.872;25.314;2023-09-18T09:13:47;97456.75;;;28.07;29.41
42771;BME280;28426;42.872;25.314;2023-09-18T09:16:24;97450.47;;;27.77;28.98
42771;BME280;28426;42.872;25.314;2023-09-18T09:18:55;97456.75;;;27.48;28.89
42771;BME280;28426;42.872;25.314;2023-09-18T09:21:38;97448.44;;;27.24;29.70
42771;BME280;28426;42.872;25.314;2023-09-18T09:24:12;97452.63;;;27.11;30.65
42771;BME280;28426;42.872;25.314;2023-09-18T09:26:57;97454.94;;;26.98;31.11
42771;BME280;28426;42.872;25.314;2023-09-18T09:29:32;97449.47;;;26.88;31.45
42771;BME280;28426;42.872;25.314;2023-09-18T09:32:17;97443.81;;;26.74;31.90
42771;BME280;28426;42.872;25.314;2023-09-18T09:34:49;97444.94;;;26.68;32.73
42771;BME280;28426;42.872;25.314;2023-09-18T09:37:29;97437.31;;;26.59;32.07
42771;BME280;28426;42.872;25.314;2023-09-18T09:40:04;97445.03;;;26.52;31.91
42771;BME280;28426;42.872;25.314;2023-09-18T09:42:41;97444.78;;;26.43;31.38
42771;BME280;28426;42.872;25.314;2023-09-18T09:45:15;97443.72;;;26.34;31.41
42771;BME280;28426;42.872;25.314;2023-09-18T09:47:53;97441.28;;;26.27;31.19
42771;BME280;28426;42.872;25.314;2023-09-18T09:50:28;97434.72;;;26.23;31.60
42771;BME280;28426;42.872;25.314;2023-09-18T09:53:04;97429.81;;;26.20;32.31
42771;BME280;28426;42.872;25.314;2023-09-18T09:55:44;97434.75;;;26.18;32.85
42771;BME280;28426;42.872;25.314;2023-09-18T09:58:27;97445.44;;;26.14;32.04
42771;BME280;28426;42.872;25.314;2023-09-18T10:01:09;97438.06;;;26.04;32.66
42771;BME280;28426;42.872;25.314;2023-09-18T10:03:53;97429.88;;;25.99;32.98
42771;BME280;28426;42.872;25.314;2023-09-18T10:06:34;97435.63;;;25.97;33.14
42771;BME280;28426;42.872;25.314;2023-09-18T10:09:14;97438.91;;;25.99;33.60
42771;BME280;28426;42.872;25.314;2023-09-18T10:11:52;97432.34;;;26.01;32.96
42771;BME280;28426;42.872;25.314;2023-09-18T10:14:31;97432.34;;;26.01;33.58
42771;BME280;28426;42.872;25.314;2023-09-18T10:17:28;97432.06;;;26.02;34.39
42771;BME280;28426;42.872;25.314;2023-09-18T10:20:08;97428.75;;;26.05;33.79
42771;BME280;28426;42.872;25.314;2023-09-18T10:22:49;97425.19;;;26.10;34.15
42771;BME280;28426;42.872;25.314;2023-09-18T10:25:29;97429.53;;;26.16;34.03
42771;BME280;28426;42.872;25.314;2023-09-18T10:28:05;97419.97;;;26.24;33.96
42771;BME280;28426;42.872;25.314;2023-09-18T10:30:45;97417.47;;;26.33;33.52
42771;BME280;28426;42.872;25.314;2023-09-18T10:33:22;97428.41;;;26.33;32.54
42771;BME280;28426;42.872;25.314;2023-09-18T10:36:09;97416.94;;;26.25;31.73
42771;BME280;28426;42.872;25.314;2023-09-18T10:38:49;97414.50;;;26.24;32.35
42771;BME280;28426;42.872;25.314;2023-09-18T10:41:27;97411.47;;;26.25;32.40
42771;BME280;28426;42.872;25.314;2023-09-18T10:44:06;97408.75;;;26.31;32.16
42771;BME280;28426;42.872;25.314;2023-09-18T10:46:41;97410.88;;;26.39;32.23
42771;BME280;28426;42.872;25.314;2023-09-18T10:49:18;97412.47;;;26.50;32.80
42771;BME280;28426;42.872;25.314;2023-09-18T10:51:57;97408.31;;;26.58;31.47
42771;BME280;28426;42.872;25.314;2023-09-18T10:54:34;97409.63;;;26.66;31.96
42771;BME280;28426;42.872;25.314;2023-09-18T10:57:10;97406.88;;;26.71;31.13
42771;BME280;28426;42.872;25.314;2023-09-18T10:59:47;97402.13;;;26.82;31.82
42771;BME280;28426;42.872;25.314;2023-09-18T11:02:24;97403.97;;;26.97;31.92
42771;BME280;28426;42.872;25.314;2023-09-18T11:05:03;97410.41;;;27.17;31.50
42771;BME280;28426;42.872;25.314;2023-09-18T11:07:42;97400.38;;;27.37;31.91
42771;BME280;28426;42.872;25.314;2023-09-18T11:10:27;97402.66;;;27.59;31.23
42771;BME280;28426;42.872;25.314;2023-09-18T11:13:06;97398.94;;;27.74;31.29
42771;BME280;28426;42.872;25.314;2023-09-18T11:15:42;97393.31;;;27.90;31.67
42771;BME280;28426;42.872;25.314;2023-09-18T11:18:20;97396.38;;;28.07;30.80
42771;BME280;28426;42.872;25.314;2023-09-18T11:21:08;97391.34;;;28.15;29.10
42771;BME280;28426;42.872;25.314;2023-09-18T11:23:44;97392.75;;;28.12;30.00
42771;BME280;28426;42.872;25.314;2023-09-18T11:26:17;97388.09;;;28.13;30.65
42771;BME280;28426;42.872;25.314;2023-09-18T11:28:53;97386.09;;;28.18;31.28
42771;BME280;28426;42.872;25.314;2023-09-18T11:31:44;97387.25;;;28.37;30.34
42771;BME280;28426;42.872;25.314;2023-09-18T11:34:24;97390.25;;;28.59;30.73
42771;BME280;28426;42.872;25.314;2023-09-18T11:37:02;97390.44;;;28.82;30.14
42771;BME280;28426;42.872;25.314;2023-09-18T11:39:55;97381.09;;;29.03;29.96
42771;BME280;28426;42.872;25.314;2023-09-18T11:42:33;97378.81;;;29.10;29.35
42771;BME280;28426;42.872;25.314;2023-09-18T11:45:07;97380.22;;;29.07;28.38
42771;BME280;28426;42.872;25.314;2023-09-18T11:47:51;97376.44;;;29.03;29.25
42771;BME280;28426;42.872;25.314;2023-09-18T11:50:27;97376.38;;;28.89;28.76
42771;BME280;28426;42.872;25.314;2023-09-18T11:53:07;97372.44;;;28.76;28.66
42771;BME280;28426;42.872;25.314;2023-09-18T11:55:48;97372.34;;;28.62;28.89
42771;BME280;28426;42.872;25.314;2023-09-18T11:58:25;97370.53;;;28.57;29.36
42771;BME280;28426;42.872;25.314;2023-09-18T12:01:10;97374.38;;;28.56;28.56
42771;BME280;28426;42.872;25.314;2023-09-18T12:03:44;97361.91;;;28.45;29.12
42771;BME280;28426;42.872;25.314;2023-09-18T12:06:20;97358.56;;;28.29;29.04
42771;BME280;28426;42.872;25.314;2023-09-18T12:08:59;97367.84;;;28.09;29.15
42771;BME280;28426;42.872;25.314;2023-09-18T12:11:42;97364.81;;;27.86;29.05
42771;BME280;28426;42.872;25.314;2023-09-18T12:14:21;97360.97;;;27.62;29.47
42771;BME280;28426;42.872;25.314;2023-09-18T12:16:57;97357.09;;;27.34;29.98
42771;BME280;28426;42.872;25.314;2023-09-18T12:19:30;97359.03;;;27.03;29.75
42771;BME280;28426;42.872;25.314;2023-09-18T12:22:05;97358.09;;;26.79;30.24
42771;BME280;28426;42.872;25.314;2023-09-18T12:24:40;97358.81;;;26.55;30.92
42771;BME280;28426;42.872;25.314;2023-09-18T12:27:18;97349.13;;;26.28;31.01
42771;BME280;28426;42.872;25.314;2023-09-18T12:30:00;97348.09;;;26.08;31.24
42771;BME280;28426;42.872;25.314;2023-09-18T12:32:37;97354.47;;;25.93;31.71
42771;BME280;28426;42.872;25.314;2023-09-18T12:35:14;97355.06;;;25.79;32.01
42771;BME280;28426;42.872;25.314;2023-09-18T12:37:48;97363.56;;;25.67;32.15
42771;BME280;28426;42.872;25.314;2023-09-18T12:40:25;97356.47;;;25.56;32.52
42771;BME280;28426;42.872;25.314;2023-09-18T12:43:04;97354.28;;;25.42;32.89
42771;BME280;28426;42.872;25.314;2023-09-18T12:45:43;97358.13;;;25.36;32.94
42771;BME280;28426;42.872;25.314;2023-09-18T12:48:19;97341.75;;;25.26;33.41
42771;BME280;28426;42.872;25.314;2023-09-18T12:50:55;97348.56;;;25.23;33.56
42771;BME280;28426;42.872;25.314;2023-09-18T12:53:30;97344.75;;;25.19;33.24
42771;BME280;28426;42.872;25.314;2023-09-18T12:56:07;97347.22;;;25.15;33.67
42771;BME280;28426;42.872;25.314;2023-09-18T12:58:46;97340.41;;;25.13;33.59
42771;BME280;28426;42.872;25.314;2023-09-18T13:01:45;97339.84;;;25.11;33.30
42771;BME280;28426;42.872;25.314;2023-09-18T13:04:19;97343.94;;;25.08;33.85
42771;BME280;28426;42.872;25.314;2023-09-18T13:07:07;97335.22;;;25.01;33.41
42771;BME280;28426;42.872;25.314;2023-09-18T13:09:41;97335.22;;;24.96;34.10
42771;BME280;28426;42.872;25.314;2023-09-18T13:12:16;97334.16;;;24.91;34.01
42771;BME280;28426;42.872;25.314;2023-09-18T13:15:03;97332.47;;;24.85;33.47
42771;BME280;28426;42.872;25.314;2023-09-18T13:17:43;97328.09;;;24.79;33.85
42771;BME280;28426;42.872;25.314;2023-09-18T13:20:21;97322.91;;;24.72;34.03
42771;BME280;28426;42.872;25.314;2023-09-18T13:23:01;97325.38;;;24.68;33.96
42771;BME280;28426;42.872;25.314;2023-09-18T13:25:39;97321.53;;;24.64;34.35
42771;BME280;28426;42.872;25.314;2023-09-18T13:28:16;97323.97;;;24.61;34.48
42771;BME280;28426;42.872;25.314;2023-09-18T13:30:58;97317.16;;;24.58;34.22
42771;BME280;28426;42.872;25.314;2023-09-18T13:33:38;97318.78;;;24.54;33.87
42771;BME280;28426;42.872;25.314;2023-09-18T13:36:22;97316.63;;;24.51;33.77
42771;BME280;28426;42.872;25.314;2023-09-18T13:38:57;97315.25;;;24.48;34.64
42771;BME280;28426;42.872;25.314;2023-09-18T13:41:33;97309.50;;;24.45;34.69
42771;BME280;28426;42.872;25.314;2023-09-18T13:44:07;97308.72;;;24.44;34.20